Time,TemperatureF,DewpointF,PressureIn,WindDirection,WindDirectionDegrees,WindSpeedMPH,WindSpeedGustMPH,Humidity,HourlyPrecipIn,Conditions,Clouds,dailyrainin,SoftwareType,DateUTC
2013-02-19 00:02:00,6.0,1.0,29.98,WNW,302,7.0,16.0,80,0.00,,,0.00,,2013-02-19 06:02:00,
2013-02-19 00:11:00,6.0,1.0,29.98,WNW,302,7.0,16.0,80,0.00,,,0.00,,2013-02-19 06:11:00,
2013-02-19 00:22:00,6.0,0.0,29.99,NW,304,9.0,18.0,77,0.00,,,0.00,,2013-02-19 06:22:00,
2013-02-19 00:32:00,5.0,0.0,30.00,NW,318,7.0,19.0,81,0.00,,,0.00,,2013-02-19 06:32:00,
2013-02-19 00:42:00,5.0,0.0,30.00,NW,318,7.0,19.0,81,0.00,,,0.00,,2013-02-19 06:42:00,
2013-02-19 00:52:00,5.0,0.0,30.01,NW,311,10.0,21.0,80,0.00,,,0.00,,2013-02-19 06:52:00,
2013-02-19 01:01:00,4.0,-2.0,30.01,NNW,331,6.0,15.0,77,0.00,,,0.00,,2013-02-19 07:01:00,
2013-02-19 01:11:00,4.0,-2.0,30.01,NNW,331,6.0,15.0,77,0.00,,,0.00,,2013-02-19 07:11:00,
2013-02-19 01:22:00,4.0,-2.0,30.01,NW,316,8.0,20.0,75,0.00,,,0.00,,2013-02-19 07:22:00,
2013-02-19 01:32:00,3.0,-3.0,30.03,NW,304,9.0,17.0,77,0.00,,,0.00,,2013-02-19 07:32:00,
2013-02-19 01:42:00,3.0,-3.0,30.03,NW,304,9.0,17.0,77,0.00,,,0.00,,2013-02-19 07:42:00,
2013-02-19 01:52:00,3.0,-3.0,30.03,NW,304,9.0,17.0,77,0.00,,,0.00,,2013-02-19 07:52:00,
2013-02-19 02:02:00,3.0,-3.0,30.04,NW,315,9.0,16.0,77,0.00,,,0.00,,2013-02-19 08:02:00,
2013-02-19 02:11:00,3.0,-3.0,30.04,NW,315,9.0,16.0,77,0.00,,,0.00,,2013-02-19 08:11:00,
2013-02-19 02:21:00,3.0,-3.0,30.05,NNW,344,12.0,24.0,76,0.00,,,0.00,,2013-02-19 08:21:00,
2013-02-19 02:31:00,3.0,-3.0,30.05,NNW,344,12.0,24.0,76,0.00,,,0.00,,2013-02-19 08:31:00,
2013-02-19 02:42:00,3.0,-3.0,30.05,NNW,344,12.0,24.0,76,0.00,,,0.00,,2013-02-19 08:42:00,
2013-02-19 02:52:00,2.0,-4.0,30.06,NW,319,9.0,18.0,75,0.00,,,0.00,,2013-02-19 08:52:00,
2013-02-19 03:01:00,2.0,-4.0,30.06,NNW,327,11.0,21.0,75,0.00,,,0.00,,2013-02-19 09:01:00,
2013-02-19 03:11:00,2.0,-4.0,30.06,NNW,327,11.0,21.0,75,0.00,,,0.00,,2013-02-19 09:11:00,
2013-02-19 03:22:00,2.0,-4.0,30.06,NNW,327,11.0,21.0,75,0.00,,,0.00,,2013-02-19 09:22:00,
2013-02-19 03:32:00,2.0,-4.0,30.08,WNW,295,9.0,19.0,77,0.00,,,0.00,,2013-02-19 09:32:00,
2013-02-19 03:42:00,2.0,-4.0,30.08,WNW,295,9.0,19.0,77,0.00,,,0.00,,2013-02-19 09:42:00,
2013-02-19 03:53:00,1.0,-5.0,30.08,NW,316,11.0,20.0,76,0.00,,,0.00,,2013-02-19 09:53:00,
2013-02-19 04:02:00,1.0,-5.0,30.09,NNW,344,13.0,26.0,76,0.00,,,0.00,,2013-02-19 10:02:00,
2013-02-19 04:11:00,1.0,-5.0,30.09,NNW,344,13.0,26.0,76,0.00,,,0.00,,2013-02-19 10:11:00,
2013-02-19 04:21:00,1.0,-5.0,30.09,West,277,13.0,20.0,76,0.00,,,0.00,,2013-02-19 10:21:00,
2013-02-19 04:32:00,1.0,-4.0,30.09,NNW,342,11.0,21.0,77,0.00,,,0.00,,2013-02-19 10:32:00,
2013-02-19 04:42:00,1.0,-4.0,30.09,NNW,342,11.0,21.0,77,0.00,,,0.00,,2013-02-19 10:42:00,
2013-02-19 04:51:00,1.0,-4.0,30.10,WNW,297,9.0,17.0,78,0.00,,,0.00,,2013-02-19 10:51:00,
2013-02-19 05:01:00,1.0,-4.0,30.11,West,274,7.0,20.0,77,0.00,,,0.00,,2013-02-19 11:01:00,
2013-02-19 05:11:00,1.0,-4.0,30.11,West,274,7.0,20.0,77,0.00,,,0.00,,2013-02-19 11:11:00,
2013-02-19 05:22:00,2.0,-4.0,30.11,NW,316,8.0,18.0,76,0.00,,,0.00,,2013-02-19 11:22:00,
2013-02-19 05:32:00,2.0,-3.0,30.12,WNW,288,6.0,15.0,79,0.00,,,0.00,,2013-02-19 11:32:00,
2013-02-19 05:42:00,2.0,-3.0,30.12,WNW,288,6.0,15.0,79,0.00,,,0.00,,2013-02-19 11:42:00,
2013-02-19 05:52:00,2.0,-3.0,30.13,NW,316,6.0,13.0,79,0.00,,,0.00,,2013-02-19 11:52:00,
2013-02-19 06:02:00,2.0,-3.0,30.13,NW,304,6.0,16.0,79,0.00,,,0.00,,2013-02-19 12:02:00,
2013-02-19 06:12:00,2.0,-3.0,30.13,NW,304,6.0,16.0,79,0.00,,,0.00,,2013-02-19 12:12:00,
2013-02-19 06:22:00,2.0,-2.0,30.14,WNW,300,5.0,15.0,81,0.00,,,0.00,,2013-02-19 12:22:00,
2013-02-19 06:32:00,2.0,-3.0,30.14,NW,305,6.0,14.0,80,0.00,,,0.00,,2013-02-19 12:32:00,
2013-02-19 06:42:00,2.0,-3.0,30.14,NW,305,6.0,14.0,80,0.00,,,0.00,,2013-02-19 12:42:00,
2013-02-19 06:52:00,2.0,-4.0,30.15,NW,304,7.0,18.0,76,0.00,,,0.00,,2013-02-19 12:52:00,
2013-02-19 07:02:00,2.0,-4.0,30.15,NW,316,7.0,15.0,76,0.00,,,0.00,,2013-02-19 13:02:00,
2013-02-19 07:11:00,2.0,-4.0,30.15,NW,316,7.0,15.0,76,0.00,,,0.00,,2013-02-19 13:11:00,
2013-02-19 07:22:00,2.0,-4.0,30.16,NW,312,7.0,16.0,77,0.00,,,0.00,,2013-02-19 13:22:00,
2013-02-19 07:32:00,2.0,-4.0,30.16,North,358,7.0,14.0,77,0.00,,,0.00,,2013-02-19 13:32:00,
2013-02-19 07:42:00,2.0,-4.0,30.16,North,358,7.0,14.0,77,0.00,,,0.00,,2013-02-19 13:42:00,
2013-02-19 07:52:00,2.0,-3.0,30.17,North,351,8.0,21.0,78,0.00,,,0.00,,2013-02-19 13:52:00,
2013-02-19 08:01:00,1.0,-5.0,30.18,NW,305,12.0,20.0,75,0.00,,,0.00,,2013-02-19 14:01:00,
2013-02-19 08:11:00,1.0,-5.0,30.18,NW,305,12.0,20.0,75,0.00,,,0.00,,2013-02-19 14:11:00,
2013-02-19 08:21:00,2.0,-4.0,30.19,NNW,346,9.0,17.0,76,0.00,,,0.00,,2013-02-19 14:21:00,
2013-02-19 08:32:00,3.0,-3.0,30.20,NNW,331,9.0,16.0,76,0.00,,,0.00,,2013-02-19 14:32:00,
2013-02-19 08:42:00,3.0,-3.0,30.20,NNW,331,9.0,16.0,76,0.00,,,0.00,,2013-02-19 14:42:00,
2013-02-19 08:52:00,3.0,-3.0,30.21,NW,311,7.0,18.0,76,0.00,,,0.00,,2013-02-19 14:52:00,
2013-02-19 09:01:00,4.0,-2.0,30.22,WNW,302,11.0,16.0,75,0.00,,,0.00,,2013-02-19 15:01:00,
2013-02-19 09:11:00,4.0,-2.0,30.22,WNW,302,11.0,16.0,75,0.00,,,0.00,,2013-02-19 15:11:00,
2013-02-19 09:21:00,4.0,-2.0,30.22,WNW,302,11.0,16.0,75,0.00,,,0.00,,2013-02-19 15:21:00,
2013-02-19 09:32:00,4.0,-2.0,30.22,WNW,302,11.0,16.0,75,0.00,,,0.00,,2013-02-19 15:32:00,
2013-02-19 09:52:00,5.0,-2.0,30.24,NNW,335,8.0,17.0,73,0.00,,,0.00,,2013-02-19 15:52:00,
2013-02-19 10:02:00,4.0,-4.0,30.25,NNE,16,13.0,20.0,70,0.00,,,0.00,,2013-02-19 16:02:00,
2013-02-19 10:11:00,4.0,-4.0,30.25,NNE,16,13.0,20.0,70,0.00,,,0.00,,2013-02-19 16:11:00,
2013-02-19 10:22:00,3.0,-4.0,30.26,WNW,297,11.0,19.0,71,0.00,,,0.00,,2013-02-19 16:22:00,
2013-02-19 10:32:00,3.0,-4.0,30.27,NW,305,10.0,18.0,72,0.00,,,0.00,,2013-02-19 16:32:00,
2013-02-19 10:42:00,3.0,-4.0,30.27,NW,305,10.0,18.0,72,0.00,,,0.00,,2013-02-19 16:42:00,
2013-02-19 10:51:00,3.0,-5.0,30.27,WNW,302,9.0,17.0,69,0.00,,,0.00,,2013-02-19 16:51:00,
2013-02-19 11:01:00,3.0,-4.0,30.28,NNW,336,10.0,17.0,72,0.00,,,0.00,,2013-02-19 17:01:00,
2013-02-19 11:11:00,3.0,-4.0,30.28,NNW,336,10.0,17.0,72,0.00,,,0.00,,2013-02-19 17:11:00,
2013-02-19 11:21:00,4.0,-4.0,30.29,West,281,10.0,16.0,70,0.00,,,0.00,,2013-02-19 17:21:00,
2013-02-19 11:32:00,4.0,-4.0,30.29,WNW,291,11.0,19.0,69,0.00,,,0.00,,2013-02-19 17:32:00,
2013-02-19 11:42:00,4.0,-4.0,30.29,WNW,291,11.0,19.0,69,0.00,,,0.00,,2013-02-19 17:42:00,
2013-02-19 11:52:00,5.0,-3.0,30.29,NW,324,10.0,17.0,69,0.00,,,0.00,,2013-02-19 17:52:00,
2013-02-19 12:01:00,7.0,-1.0,30.30,NW,326,7.0,15.0,69,0.00,,,0.00,,2013-02-19 18:01:00,
2013-02-19 12:11:00,7.0,-1.0,30.30,NW,326,7.0,15.0,69,0.00,,,0.00,,2013-02-19 18:11:00,
2013-02-19 12:21:00,7.0,-1.0,30.30,NNW,346,12.0,20.0,68,0.00,,,0.00,,2013-02-19 18:21:00,
2013-02-19 12:32:00,7.0,-1.0,30.31,NW,322,9.0,17.0,69,0.00,,,0.00,,2013-02-19 18:32:00,
2013-02-19 12:42:00,7.0,-1.0,30.31,NW,322,9.0,17.0,69,0.00,,,0.00,,2013-02-19 18:42:00,
2013-02-19 12:51:00,8.0,0.0,30.31,WNW,302,6.0,17.0,69,0.00,,,0.00,,2013-02-19 18:51:00,
2013-02-19 13:01:00,9.0,1.0,30.31,NW,320,7.0,14.0,68,0.00,,,0.00,,2013-02-19 19:01:00,
2013-02-19 13:11:00,9.0,1.0,30.31,NW,320,7.0,14.0,68,0.00,,,0.00,,2013-02-19 19:11:00,
2013-02-19 13:21:00,9.0,0.0,30.31,NW,324,9.0,18.0,66,0.00,,,0.00,,2013-02-19 19:21:00,
2013-02-19 13:32:00,9.0,0.0,30.31,NW,324,9.0,18.0,66,0.00,,,0.00,,2013-02-19 19:32:00,
2013-02-19 13:41:00,9.0,0.0,30.31,NW,324,9.0,18.0,66,0.00,,,0.00,,2013-02-19 19:41:00,
2013-02-19 13:51:00,11.0,2.0,30.31,WNW,300,6.0,17.0,67,0.00,,,0.00,,2013-02-19 19:51:00,
2013-02-19 14:01:00,11.0,2.0,30.31,WNW,290,8.0,16.0,67,0.00,,,0.00,,2013-02-19 20:01:00,
2013-02-19 14:12:00,11.0,2.0,30.31,WNW,290,8.0,16.0,67,0.00,,,0.00,,2013-02-19 20:12:00,
2013-02-19 14:21:00,12.0,3.0,30.31,NW,316,7.0,16.0,66,0.00,,,0.00,,2013-02-19 20:21:00,
2013-02-19 14:32:00,12.0,3.0,30.31,West,274,6.0,14.0,67,0.00,,,0.00,,2013-02-19 20:32:00,
2013-02-19 14:42:00,12.0,3.0,30.31,West,274,6.0,14.0,67,0.00,,,0.00,,2013-02-19 20:42:00,
2013-02-19 14:52:00,12.0,3.0,30.31,WNW,300,6.0,15.0,66,0.00,,,0.00,,2013-02-19 20:52:00,
2013-02-19 15:02:00,13.0,4.0,30.32,NW,315,6.0,17.0,66,0.00,,,0.00,,2013-02-19 21:02:00,
2013-02-19 15:11:00,13.0,4.0,30.32,NW,315,6.0,17.0,66,0.00,,,0.00,,2013-02-19 21:11:00,
2013-02-19 15:21:00,14.0,5.0,30.32,NW,308,6.0,13.0,66,0.00,,,0.00,,2013-02-19 21:21:00,
2013-02-19 15:32:00,13.0,3.0,30.32,North,356,7.0,16.0,65,0.00,,,0.00,,2013-02-19 21:32:00,
2013-02-19 15:42:00,13.0,3.0,30.32,North,356,7.0,16.0,65,0.00,,,0.00,,2013-02-19 21:42:00,
2013-02-19 15:51:00,13.0,3.0,30.33,NW,305,6.0,11.0,65,0.00,,,0.00,,2013-02-19 21:51:00,
2013-02-19 16:02:00,13.0,3.0,30.33,NW,309,7.0,16.0,64,0.00,,,0.00,,2013-02-19 22:02:00,
2013-02-19 16:11:00,13.0,3.0,30.33,NW,309,7.0,16.0,64,0.00,,,0.00,,2013-02-19 22:11:00,
2013-02-19 16:21:00,13.0,3.0,30.34,NW,311,8.0,14.0,63,0.00,,,0.00,,2013-02-19 22:21:00,
2013-02-19 16:32:00,13.0,3.0,30.34,NW,312,4.0,11.0,64,0.00,,,0.00,,2013-02-19 22:32:00,
2013-02-19 16:42:00,13.0,3.0,30.34,NW,312,4.0,11.0,64,0.00,,,0.00,,2013-02-19 22:42:00,
2013-02-19 16:52:00,12.0,2.0,30.35,NW,320,8.0,14.0,64,0.00,,,0.00,,2013-02-19 22:52:00,
2013-02-19 17:01:00,11.0,1.0,30.36,North,349,10.0,16.0,64,0.00,,,0.00,,2013-02-19 23:01:00,
2013-02-19 17:11:00,11.0,1.0,30.36,North,349,10.0,16.0,64,0.00,,,0.00,,2013-02-19 23:11:00,
2013-02-19 17:21:00,10.0,2.0,30.36,NW,304,5.0,13.0,68,0.00,,,0.00,,2013-02-19 23:21:00,
2013-02-19 17:32:00,10.0,1.0,30.36,NNW,335,8.0,16.0,67,0.00,,,0.00,,2013-02-19 23:32:00,
2013-02-19 17:42:00,10.0,1.0,30.36,NNW,335,8.0,16.0,67,0.00,,,0.00,,2013-02-19 23:42:00,
2013-02-19 17:52:00,9.0,0.0,30.37,NW,304,7.0,14.0,67,0.00,,,0.00,,2013-02-19 23:52:00,
2013-02-19 18:01:00,8.0,0.0,30.37,NNE,16,6.0,11.0,70,0.00,,,0.00,,2013-02-20 00:01:00,
2013-02-19 18:11:00,8.0,0.0,30.37,NNE,16,6.0,11.0,70,0.00,,,0.00,,2013-02-20 00:11:00,
2013-02-19 18:21:00,7.0,-1.0,30.37,NW,322,8.0,13.0,69,0.00,,,0.00,,2013-02-20 00:21:00,
2013-02-19 18:32:00,7.0,0.0,30.38,WNW,302,6.0,12.0,71,0.00,,,0.00,,2013-02-20 00:32:00,
2013-02-19 18:42:00,7.0,0.0,30.38,WNW,302,6.0,12.0,71,0.00,,,0.00,,2013-02-20 00:42:00,
2013-02-19 18:52:00,6.0,-1.0,30.39,NW,322,7.0,13.0,71,0.00,,,0.00,,2013-02-20 00:52:00,
2013-02-19 19:02:00,5.0,-2.0,30.40,NW,319,6.0,13.0,72,0.00,,,0.00,,2013-02-20 01:02:00,
2013-02-19 19:11:00,5.0,-2.0,30.40,NW,319,6.0,13.0,72,0.00,,,0.00,,2013-02-20 01:11:00,
2013-02-19 19:21:00,4.0,-3.0,30.41,NW,315,5.0,11.0,73,0.00,,,0.00,,2013-02-20 01:21:00,
2013-02-19 19:32:00,4.0,-2.0,30.41,NNW,335,3.0,12.0,74,0.00,,,0.00,,2013-02-20 01:32:00,
2013-02-19 19:42:00,4.0,-2.0,30.41,NNW,335,3.0,12.0,74,0.00,,,0.00,,2013-02-20 01:42:00,
2013-02-19 19:52:00,3.0,-3.0,30.42,NW,320,5.0,11.0,75,0.00,,,0.00,,2013-02-20 01:52:00,
2013-02-19 20:01:00,2.0,-4.0,30.42,NW,311,6.0,13.0,75,0.00,,,0.00,,2013-02-20 02:01:00,
2013-02-19 20:11:00,2.0,-4.0,30.42,NW,311,6.0,13.0,75,0.00,,,0.00,,2013-02-20 02:11:00,
2013-02-19 20:21:00,1.0,-5.0,30.42,NW,318,8.0,14.0,75,0.00,,,0.00,,2013-02-20 02:21:00,
2013-02-19 20:32:00,1.0,-4.0,30.42,NE,40,8.0,13.0,77,0.00,,,0.00,,2013-02-20 02:32:00,
2013-02-19 20:42:00,1.0,-4.0,30.42,NE,40,8.0,13.0,77,0.00,,,0.00,,2013-02-20 02:42:00,
2013-02-19 20:52:00,0.0,-6.0,30.42,NNW,331,8.0,15.0,76,0.00,,,0.00,,2013-02-20 02:52:00,
2013-02-19 21:01:00,0.0,-6.0,30.44,NNW,347,8.0,17.0,76,0.00,,,0.00,,2013-02-20 03:01:00,
2013-02-19 21:12:00,0.0,-6.0,30.44,NNW,347,8.0,17.0,76,0.00,,,0.00,,2013-02-20 03:12:00,
2013-02-19 21:22:00,0.0,-5.0,30.45,NNE,29,8.0,14.0,77,0.00,,,0.00,,2013-02-20 03:22:00,
2013-02-19 21:32:00,0.0,-6.0,30.45,NNW,329,7.0,16.0,76,0.00,,,0.00,,2013-02-20 03:32:00,
2013-02-19 21:41:00,0.0,-6.0,30.45,NNW,329,7.0,16.0,76,0.00,,,0.00,,2013-02-20 03:41:00,
2013-02-19 21:51:00,0.0,-5.0,30.45,North,351,6.0,11.0,78,0.00,,,0.00,,2013-02-20 03:51:00,
2013-02-19 22:01:00,0.0,-5.0,30.45,North,357,9.0,14.0,77,0.00,,,0.00,,2013-02-20 04:01:00,
2013-02-19 22:11:00,0.0,-5.0,30.45,North,357,9.0,14.0,77,0.00,,,0.00,,2013-02-20 04:11:00,
2013-02-19 22:21:00,-1.0,-7.0,30.47,NW,321,5.0,13.0,76,0.00,,,0.00,,2013-02-20 04:21:00,
2013-02-19 22:31:00,-1.0,-6.0,30.47,NW,325,4.0,10.0,77,0.00,,,0.00,,2013-02-20 04:31:00,
2013-02-19 22:42:00,-1.0,-6.0,30.47,NW,325,4.0,10.0,77,0.00,,,0.00,,2013-02-20 04:42:00,
2013-02-19 22:52:00,-1.0,-6.0,30.48,NNW,329,3.0,8.0,77,0.00,,,0.00,,2013-02-20 04:52:00,
2013-02-19 23:02:00,-1.0,-6.0,30.48,NNW,338,4.0,9.0,77,0.00,,,0.00,,2013-02-20 05:02:00,
2013-02-19 23:12:00,-1.0,-6.0,30.48,NNW,338,4.0,9.0,77,0.00,,,0.00,,2013-02-20 05:12:00,
2013-02-19 23:22:00,-1.0,-6.0,30.48,NNW,332,5.0,8.0,77,0.00,,,0.00,,2013-02-20 05:22:00,
2013-02-19 23:32:00,-1.0,-6.0,30.49,NW,304,4.0,9.0,77,0.00,,,0.00,,2013-02-20 05:32:00,
2013-02-19 23:43:00,-1.0,-6.0,30.49,NW,304,4.0,9.0,77,0.00,,,0.00,,2013-02-20 05:43:00,
2013-02-19 23:52:00,-1.0,-6.0,30.50,WNW,282,5.0,9.0,77,0.00,,,0.00,,2013-02-20 05:52:00,